createdAt,value
2023-11-29T00:02:19.998Z,2.10
2023-11-29T00:04:46.673Z,1.60
2023-11-29T00:07:13.300Z,1.75
2023-11-29T00:09:39.884Z,1.45
2023-11-29T00:12:06.679Z,1.60
2023-11-29T00:14:33.780Z,2.00
2023-11-29T00:17:08.619Z,1.60
2023-11-29T00:19:38.921Z,1.80
2023-11-29T00:22:06.207Z,1.90
2023-11-29T00:24:33.170Z,1.80
2023-11-29T00:27:00.318Z,2.70
2023-11-29T00:29:27.317Z,2.05
2023-11-29T00:31:54.029Z,2.40
2023-11-29T00:34:20.629Z,1.88
2023-11-29T00:36:47.931Z,2.35
2023-11-29T00:39:14.576Z,1.60
2023-11-29T00:41:41.217Z,1.70
2023-11-29T00:44:08.008Z,1.77
2023-11-29T00:46:34.624Z,1.83
2023-11-29T00:49:01.296Z,2.08
2023-11-29T00:51:27.884Z,1.83
2023-11-29T00:53:54.464Z,2.03
2023-11-29T00:56:21.164Z,2.55
2023-11-29T00:58:47.793Z,2.10
2023-11-29T01:01:14.451Z,2.92
2023-11-29T01:03:41.156Z,2.00
2023-11-29T01:06:08.010Z,2.33
2023-11-29T01:08:34.690Z,2.30
2023-11-29T01:11:01.319Z,2.30
2023-11-29T01:13:29.438Z,2.58
2023-11-29T01:15:56.300Z,2.50
2023-11-29T01:18:23.144Z,2.95
2023-11-29T01:20:49.895Z,2.28
2023-11-29T01:23:16.582Z,2.10
2023-11-29T01:25:43.392Z,2.50
2023-11-29T01:28:11.776Z,3.25
2023-11-29T01:30:38.441Z,1.85
2023-11-29T01:33:05.285Z,2.20
2023-11-29T01:35:32.014Z,2.25
2023-11-29T01:37:59.414Z,1.90
2023-11-29T01:40:26.092Z,2.17
2023-11-29T01:42:52.711Z,2.50
2023-11-29T01:45:19.579Z,2.10
2023-11-29T01:47:46.318Z,1.80
2023-11-29T01:50:16.044Z,2.25
2023-11-29T01:52:44.873Z,2.47
2023-11-29T01:55:13.361Z,2.25
2023-11-29T01:57:43.002Z,3.17
2023-11-29T02:00:11.423Z,2.25
2023-11-29T02:02:38.189Z,2.00
2023-11-29T02:05:05.371Z,2.50
2023-11-29T02:07:31.998Z,2.42
2023-11-29T02:09:58.649Z,2.00
2023-11-29T02:12:25.746Z,2.50
2023-11-29T02:14:57.130Z,2.33
2023-11-29T02:17:23.791Z,2.63
2023-11-29T02:19:52.360Z,2.15
2023-11-29T02:22:19.853Z,2.25
2023-11-29T02:24:49.690Z,2.05
2023-11-29T02:27:16.296Z,2.33
2023-11-29T02:29:43.071Z,3.08
2023-11-29T02:32:09.894Z,2.33
2023-11-29T02:34:37.155Z,2.75
2023-11-29T02:37:04.963Z,2.30
2023-11-29T02:39:31.887Z,2.40
2023-11-29T02:41:58.537Z,2.40
2023-11-29T02:44:25.663Z,2.30
2023-11-29T02:46:52.446Z,2.00
2023-11-29T02:49:19.465Z,3.13
2023-11-29T02:51:46.433Z,2.45
2023-11-29T02:54:13.024Z,2.53
2023-11-29T02:56:39.699Z,2.40
2023-11-29T02:59:06.424Z,2.28
2023-11-29T03:01:33.129Z,2.40
2023-11-29T03:03:59.888Z,2.20
2023-11-29T03:06:26.574Z,2.25
2023-11-29T03:08:53.174Z,4.40
2023-11-29T03:11:19.916Z,2.22
2023-11-29T03:13:46.556Z,2.10
2023-11-29T03:16:13.266Z,2.55
2023-11-29T03:18:40.512Z,2.45
2023-11-29T03:21:07.399Z,2.60
2023-11-29T03:23:34.081Z,2.70
2023-11-29T03:26:05.448Z,2.35
2023-11-29T03:28:32.242Z,2.45
2023-11-29T03:30:58.936Z,2.60
2023-11-29T03:33:25.674Z,2.50
2023-11-29T03:35:52.323Z,2.30
2023-11-29T03:38:19.229Z,2.22
2023-11-29T03:40:45.934Z,3.08
2023-11-29T03:43:12.560Z,2.40
2023-11-29T03:45:39.291Z,2.03
2023-11-29T03:48:06.145Z,2.03
2023-11-29T03:50:32.793Z,2.42
2023-11-29T03:52:59.533Z,2.13
2023-11-29T03:55:26.258Z,2.72
2023-11-29T03:57:52.868Z,2.28
2023-11-29T04:00:19.620Z,1.88
2023-11-29T04:02:46.324Z,2.50
2023-11-29T04:05:13.043Z,1.80
2023-11-29T04:07:39.901Z,2.13
2023-11-29T04:10:10.001Z,2.60
2023-11-29T04:12:37.315Z,2.10
2023-11-29T04:15:04.174Z,2.33
2023-11-29T04:17:30.881Z,2.28
2023-11-29T04:19:57.538Z,2.33
2023-11-29T04:22:24.140Z,2.40
2023-11-29T04:24:50.743Z,2.45
2023-11-29T04:27:17.364Z,3.25
2023-11-29T04:29:44.058Z,3.08
2023-11-29T04:32:10.691Z,3.95
2023-11-29T04:34:45.134Z,3.38
2023-11-29T04:37:14.331Z,2.85
2023-11-29T04:39:41.203Z,3.55
2023-11-29T04:42:07.841Z,3.40
2023-11-29T04:44:36.490Z,2.78
2023-11-29T04:47:03.590Z,2.20
2023-11-29T04:49:30.199Z,3.03
2023-11-29T04:51:56.833Z,3.25
2023-11-29T04:54:23.413Z,3.13
2023-11-29T04:56:50.131Z,2.72
2023-11-29T04:59:16.873Z,2.80
2023-11-29T05:01:43.624Z,3.20
2023-11-29T05:04:10.666Z,2.75
2023-11-29T05:06:37.319Z,2.88
2023-11-29T05:09:06.913Z,3.60
2023-11-29T05:11:34.029Z,2.40
2023-11-29T05:14:00.638Z,2.33
2023-11-29T05:16:27.267Z,3.85
2023-11-29T05:18:54.103Z,2.20
2023-11-29T05:21:20.856Z,2.45
2023-11-29T05:23:47.520Z,2.75
2023-11-29T05:26:15.616Z,2.47
2023-11-29T05:28:42.535Z,2.30
2023-11-29T05:31:09.243Z,2.00
2023-11-29T05:33:35.914Z,2.05
2023-11-29T05:36:02.554Z,2.10
2023-11-29T05:38:29.244Z,3.13
2023-11-29T05:40:56.048Z,2.50
2023-11-29T05:43:23.050Z,2.50
2023-11-29T05:45:50.179Z,2.42
2023-11-29T05:48:16.955Z,2.78
2023-11-29T05:50:43.832Z,2.20
2023-11-29T05:53:10.570Z,2.47
2023-11-29T05:55:37.221Z,2.67
2023-11-29T05:58:07.093Z,1.90
2023-11-29T06:00:33.896Z,2.60
2023-11-29T06:03:01.680Z,2.20
2023-11-29T06:05:29.718Z,2.42
2023-11-29T06:07:56.514Z,2.58
2023-11-29T06:10:23.184Z,2.17
2023-11-29T06:12:49.914Z,2.20
2023-11-29T06:15:16.922Z,2.38
2023-11-29T06:17:44.102Z,2.72
2023-11-29T06:20:13.078Z,2.60
2023-11-29T06:22:39.973Z,2.90
2023-11-29T06:25:09.263Z,2.15
2023-11-29T06:27:39.163Z,2.35
2023-11-29T06:30:06.452Z,2.63
2023-11-29T06:32:33.314Z,2.75
2023-11-29T06:35:00.049Z,2.20
2023-11-29T06:37:26.747Z,2.13
2023-11-29T06:39:55.338Z,2.38
2023-11-29T06:42:22.323Z,2.80
2023-11-29T06:44:50.083Z,2.03
2023-11-29T06:47:18.602Z,2.28
2023-11-29T06:49:46.072Z,2.30
2023-11-29T06:52:14.140Z,2.47
2023-11-29T06:54:41.302Z,2.22
2023-11-29T06:57:08.202Z,2.15
2023-11-29T06:59:36.102Z,3.13
2023-11-29T07:02:06.106Z,2.20
2023-11-29T07:04:33.321Z,3.55
2023-11-29T07:07:00.979Z,2.17
2023-11-29T07:09:28.572Z,1.95
2023-11-29T07:11:55.571Z,1.95
2023-11-29T07:14:22.323Z,2.35
2023-11-29T07:16:49.046Z,2.22
2023-11-29T07:19:15.766Z,2.28
2023-11-29T07:21:42.684Z,1.70
2023-11-29T07:24:09.420Z,2.03
2023-11-29T07:26:36.179Z,2.25
2023-11-29T07:29:04.710Z,2.35
2023-11-29T07:31:33.194Z,2.35
2023-11-29T07:34:00.209Z,2.35
2023-11-29T07:36:29.028Z,2.30
2023-11-29T07:38:56.565Z,2.20
2023-11-29T07:41:23.512Z,1.95
2023-11-29T07:43:50.351Z,2.30
2023-11-29T07:46:18.606Z,2.72
2023-11-29T07:48:45.397Z,1.98
2023-11-29T07:51:12.069Z,1.58
2023-11-29T07:53:38.747Z,2.22
2023-11-29T07:56:05.863Z,2.30
2023-11-29T07:58:36.607Z,2.03
2023-11-29T08:01:04.023Z,2.20
2023-11-29T08:03:30.656Z,2.90
2023-11-29T08:06:04.681Z,2.28
2023-11-29T08:08:31.545Z,2.53
2023-11-29T08:10:58.174Z,1.70
2023-11-29T08:13:24.975Z,1.92
2023-11-29T08:15:51.801Z,1.70
2023-11-29T08:18:18.620Z,2.20
2023-11-29T08:20:45.465Z,2.30
2023-11-29T08:23:12.236Z,1.85
2023-11-29T08:25:38.920Z,1.90
2023-11-29T08:28:05.584Z,2.95
2023-11-29T08:30:32.200Z,2.00
2023-11-29T08:32:58.874Z,2.20
2023-11-29T08:35:25.625Z,2.20
2023-11-29T08:37:52.303Z,2.00
2023-11-29T08:40:19.108Z,1.98
2023-11-29T08:42:46.083Z,2.00
2023-11-29T08:45:12.870Z,1.73
2023-11-29T08:47:39.716Z,1.40
2023-11-29T08:50:06.816Z,1.63
2023-11-29T08:52:34.243Z,1.40
2023-11-29T08:55:00.899Z,1.60
2023-11-29T08:57:27.782Z,1.50
2023-11-29T08:59:54.760Z,1.73
2023-11-29T09:02:24.198Z,1.48
2023-11-29T09:04:51.793Z,1.33
2023-11-29T09:07:19.237Z,1.52
2023-11-29T09:09:46.478Z,1.45
2023-11-29T09:12:13.634Z,1.85
2023-11-29T09:14:40.737Z,1.73
2023-11-29T09:17:07.948Z,1.73
2023-11-29T09:19:34.722Z,1.90
2023-11-29T09:22:02.607Z,1.75
2023-11-29T09:24:31.478Z,1.75
2023-11-29T09:26:58.704Z,1.88
2023-11-29T09:29:29.600Z,1.77
2023-11-29T09:31:56.497Z,1.67
2023-11-29T09:34:24.133Z,1.70
2023-11-29T09:36:51.784Z,1.83
2023-11-29T09:39:19.484Z,2.03
2023-11-29T09:41:46.928Z,1.67
2023-11-29T09:44:14.910Z,2.17
2023-11-29T09:46:42.192Z,2.40
2023-11-29T09:49:09.401Z,1.80
2023-11-29T09:51:37.157Z,1.83
2023-11-29T09:54:05.052Z,2.00
2023-11-29T09:56:32.105Z,2.20
2023-11-29T09:58:59.634Z,1.90
2023-11-29T10:01:27.768Z,3.03
2023-11-29T10:04:04.863Z,2.50
2023-11-29T10:06:32.716Z,2.45
2023-11-29T10:09:02.333Z,3.63
2023-11-29T10:11:31.155Z,2.75
2023-11-29T10:13:58.600Z,2.10
2023-11-29T10:16:28.396Z,2.58
2023-11-29T10:18:55.173Z,1.90
2023-11-29T10:21:21.974Z,1.95
2023-11-29T10:23:50.106Z,2.40
2023-11-29T10:26:16.917Z,3.15
2023-11-29T10:28:43.626Z,2.20
2023-11-29T10:31:10.642Z,2.67
2023-11-29T10:33:40.928Z,2.63
2023-11-29T10:36:08.116Z,2.17
2023-11-29T10:38:42.198Z,2.28
2023-11-29T10:41:10.352Z,2.20
2023-11-29T10:43:39.870Z,2.28
2023-11-29T10:46:30.203Z,1.90
2023-11-29T10:49:03.215Z,1.98
2023-11-29T10:51:30.200Z,2.58
2023-11-29T10:53:59.630Z,2.40
2023-11-29T10:56:27.652Z,2.70
2023-11-29T10:59:15.440Z,2.00
2023-11-29T11:01:44.228Z,2.38
2023-11-29T11:04:12.117Z,2.30
2023-11-29T11:06:43.173Z,2.20
2023-11-29T11:09:34.117Z,2.13
2023-11-29T11:12:01.653Z,2.10
2023-11-29T11:14:58.389Z,2.25
2023-11-29T11:17:25.137Z,2.00
2023-11-29T11:19:52.189Z,2.15
2023-11-29T11:22:25.006Z,2.65
2023-11-29T11:24:54.511Z,2.35
2023-11-29T11:27:40.372Z,2.70
2023-11-29T11:30:16.182Z,2.20
2023-11-29T11:32:43.472Z,2.08
2023-11-29T11:35:22.881Z,2.15
2023-11-29T11:37:51.679Z,2.17
2023-11-29T11:40:19.346Z,2.80
2023-11-29T11:42:49.258Z,2.35
2023-11-29T11:45:17.356Z,2.90
2023-11-29T11:47:44.873Z,2.83
2023-11-29T11:50:13.747Z,2.63
2023-11-29T11:52:41.088Z,2.60
2023-11-29T11:55:09.822Z,2.50
2023-11-29T11:57:37.689Z,2.88
2023-11-29T12:00:08.196Z,2.88
2023-11-29T12:02:39.411Z,3.17
2023-11-29T12:05:07.514Z,2.25
2023-11-29T12:07:41.135Z,2.45
2023-11-29T12:10:14.978Z,2.53
2023-11-29T12:12:43.596Z,2.30
2023-11-29T12:15:15.942Z,2.80
2023-11-29T12:17:43.802Z,2.43
2023-11-29T12:20:12.622Z,2.67
2023-11-29T12:22:48.831Z,2.10
2023-11-29T12:25:17.809Z,3.83
2023-11-29T12:27:46.326Z,2.55
2023-11-29T12:30:13.583Z,2.75
2023-11-29T12:32:41.677Z,2.50
2023-11-29T12:35:10.113Z,2.30
2023-11-29T12:37:36.956Z,2.35
2023-11-29T12:40:05.561Z,2.90
2023-11-29T12:42:33.538Z,2.13
2023-11-29T12:45:00.566Z,2.65
2023-11-29T12:47:31.583Z,3.03
2023-11-29T12:49:58.914Z,3.67
2023-11-29T12:52:26.478Z,3.33
2023-11-29T12:54:53.216Z,2.40
2023-11-29T12:57:20.033Z,2.35
2023-11-29T12:59:46.927Z,2.42
2023-11-29T13:02:13.571Z,3.28
2023-11-29T13:04:40.273Z,2.30
2023-11-29T13:07:07.234Z,2.35
2023-11-29T13:09:33.918Z,2.10
2023-11-29T13:12:01.199Z,2.20
2023-11-29T13:14:28.513Z,2.38
2023-11-29T13:16:55.544Z,3.13
2023-11-29T13:19:22.878Z,2.38
2023-11-29T13:21:49.677Z,2.17
2023-11-29T13:24:16.404Z,2.20
2023-11-29T13:26:43.270Z,2.70
2023-11-29T13:29:10.066Z,2.05
2023-11-29T13:31:36.743Z,2.53
2023-11-29T13:34:03.382Z,2.28
2023-11-29T13:36:32.213Z,2.40
2023-11-29T13:38:59.106Z,4.00
2023-11-29T13:41:28.778Z,2.47
2023-11-29T13:43:55.749Z,2.33
2023-11-29T13:46:22.632Z,2.88
2023-11-29T13:48:49.531Z,2.22
2023-11-29T13:51:16.902Z,2.75
2023-11-29T13:53:43.680Z,2.50
2023-11-29T13:56:10.792Z,2.35
2023-11-29T13:58:38.308Z,2.08
2023-11-29T14:01:06.378Z,2.42
2023-11-29T14:03:40.502Z,2.72
2023-11-29T14:06:10.421Z,2.25
2023-11-29T14:08:37.262Z,3.72
2023-11-29T14:11:04.045Z,2.10
2023-11-29T14:13:31.222Z,2.03
2023-11-29T14:15:57.848Z,2.03
2023-11-29T14:18:24.545Z,2.75
2023-11-29T14:20:51.601Z,2.35
2023-11-29T14:23:19.561Z,2.20
2023-11-29T14:25:47.888Z,2.42
2023-11-29T14:28:14.883Z,1.98
2023-11-29T14:30:42.033Z,2.15
2023-11-29T14:33:09.075Z,2.72
2023-11-29T14:35:35.796Z,3.78
2023-11-29T14:38:02.419Z,3.22
2023-11-29T14:40:29.091Z,3.47
2023-11-29T14:42:56.438Z,4.03
2023-11-29T14:45:23.269Z,3.42
2023-11-29T14:47:50.278Z,4.85
2023-11-29T14:50:17.772Z,3.05
2023-11-29T14:52:44.440Z,3.15
2023-11-29T14:55:11.046Z,3.40
2023-11-29T14:57:38.704Z,2.50
2023-11-29T15:00:06.163Z,2.78
2023-11-29T15:02:32.790Z,2.25
2023-11-29T15:04:59.402Z,2.25
2023-11-29T15:07:25.980Z,2.22
2023-11-29T15:09:52.946Z,1.95
2023-11-29T15:12:20.145Z,1.90
2023-11-29T15:14:46.835Z,2.03
2023-11-29T15:17:13.540Z,2.35
2023-11-29T15:19:40.145Z,3.83
2023-11-29T15:22:07.993Z,3.45
2023-11-29T15:24:34.575Z,3.55
2023-11-29T15:27:01.419Z,3.13
2023-11-29T15:29:31.275Z,3.38
2023-11-29T15:31:59.164Z,5.75
2023-11-29T15:34:27.061Z,5.75
2023-11-29T15:36:53.700Z,4.28
2023-11-29T15:39:20.410Z,3.90
2023-11-29T15:41:47.484Z,4.57
2023-11-29T15:44:14.245Z,5.13
2023-11-29T15:46:41.022Z,4.00
2023-11-29T15:49:07.755Z,4.85
2023-11-29T15:51:34.580Z,3.83
2023-11-29T15:54:01.400Z,4.43
2023-11-29T15:56:28.233Z,3.15
2023-11-29T15:58:54.856Z,4.32
2023-11-29T16:01:23.677Z,3.00
2023-11-29T16:03:51.964Z,2.70
2023-11-29T16:06:18.869Z,2.90
2023-11-29T16:08:45.651Z,3.00
2023-11-29T16:11:12.310Z,4.10
2023-11-29T16:13:38.940Z,5.53
2023-11-29T16:16:05.988Z,6.63
2023-11-29T16:18:32.837Z,5.38
2023-11-29T16:20:59.933Z,4.25
2023-11-29T16:23:26.625Z,3.30
2023-11-29T16:25:55.085Z,5.68
2023-11-29T16:28:21.744Z,4.78
2023-11-29T16:30:50.167Z,3.13
2023-11-29T16:33:17.011Z,4.13
2023-11-29T16:35:43.835Z,3.97
2023-11-29T16:38:10.534Z,2.78
2023-11-29T16:40:37.216Z,3.15
2023-11-29T16:43:04.375Z,3.58
2023-11-29T16:45:31.022Z,3.70
2023-11-29T16:47:57.913Z,4.07
2023-11-29T16:50:24.605Z,3.90
2023-11-29T16:52:52.431Z,3.90
2023-11-29T16:55:19.090Z,7.55
2023-11-29T16:57:45.714Z,3.65
2023-11-29T17:00:12.800Z,4.50
2023-11-29T17:02:39.627Z,4.13
2023-11-29T17:05:06.793Z,5.07
2023-11-29T17:07:33.423Z,3.95
2023-11-29T17:10:00.464Z,3.60
2023-11-29T17:12:27.246Z,4.80
2023-11-29T17:14:53.844Z,8.50
2023-11-29T17:17:23.302Z,4.40
2023-11-29T17:19:51.079Z,4.72
2023-11-29T17:22:18.840Z,7.03
2023-11-29T17:24:45.532Z,4.50
2023-11-29T17:27:12.182Z,4.20
2023-11-29T17:29:39.303Z,3.70
2023-11-29T17:32:07.697Z,4.18
2023-11-29T17:34:34.442Z,4.03
2023-11-29T17:37:01.134Z,4.47
2023-11-29T17:39:28.272Z,4.60
2023-11-29T17:41:55.797Z,3.53
2023-11-29T17:44:24.062Z,4.93
2023-11-29T17:46:54.916Z,3.72
2023-11-29T17:49:21.745Z,2.83
2023-11-29T17:51:48.341Z,9.35
2023-11-29T17:54:16.586Z,13.20
2023-11-29T17:56:44.205Z,5.30
2023-11-29T17:59:11.756Z,4.15
2023-11-29T18:01:41.179Z,6.65
2023-11-29T18:04:08.036Z,4.60
2023-11-29T18:06:35.179Z,3.83
2023-11-29T18:09:03.516Z,5.45
2023-11-29T18:11:30.828Z,4.82
2023-11-29T18:13:57.995Z,5.38
2023-11-29T18:16:27.449Z,3.58
2023-11-29T18:18:54.979Z,3.67
2023-11-29T18:21:24.569Z,4.32
2023-11-29T18:23:52.254Z,4.05
2023-11-29T18:26:19.018Z,4.40
2023-11-29T18:28:48.524Z,3.50
2023-11-29T18:31:16.513Z,3.65
2023-11-29T18:33:43.553Z,3.10
2023-11-29T18:36:10.592Z,3.10
2023-11-29T18:38:37.536Z,3.45
2023-11-29T18:41:05.251Z,3.13
2023-11-29T18:43:33.837Z,3.05
2023-11-29T18:46:00.774Z,2.95
2023-11-29T18:48:28.798Z,3.03
2023-11-29T18:50:55.859Z,4.40
2023-11-29T18:53:22.495Z,3.00
2023-11-29T18:55:49.172Z,3.78
2023-11-29T18:58:15.796Z,3.67
2023-11-29T19:00:42.441Z,3.35
2023-11-29T19:03:09.341Z,4.55
2023-11-29T19:05:36.080Z,4.32
2023-11-29T19:08:02.714Z,4.43
2023-11-29T19:10:29.308Z,3.92
2023-11-29T19:12:55.953Z,4.90
2023-11-29T19:15:22.792Z,4.18
2023-11-29T19:17:49.785Z,4.15
2023-11-29T19:20:16.525Z,3.63
2023-11-29T19:22:43.785Z,4.82
2023-11-29T19:25:10.467Z,3.80
2023-11-29T19:27:37.636Z,3.40
2023-11-29T19:30:05.757Z,3.63
2023-11-29T19:32:32.566Z,3.85
2023-11-29T19:34:59.284Z,3.60
2023-11-29T19:37:25.883Z,4.53
2023-11-29T19:39:53.451Z,4.35
2023-11-29T19:42:20.198Z,4.10
2023-11-29T19:44:46.896Z,3.58
2023-11-29T19:47:16.322Z,3.88
2023-11-29T19:49:44.009Z,3.80
2023-11-29T19:52:11.012Z,3.67
2023-11-29T19:54:38.025Z,3.30
2023-11-29T19:57:04.879Z,3.72
2023-11-29T19:59:31.565Z,3.28
2023-11-29T20:01:58.189Z,3.55
2023-11-29T20:04:24.876Z,3.08
2023-11-29T20:06:51.739Z,4.70
2023-11-29T20:09:21.714Z,5.53
2023-11-29T20:11:49.109Z,4.22
2023-11-29T20:14:19.875Z,4.60
2023-11-29T20:16:52.622Z,4.28
2023-11-29T20:19:19.411Z,3.88
2023-11-29T20:21:46.108Z,5.70
2023-11-29T20:24:12.897Z,4.43
2023-11-29T20:26:39.614Z,4.15
2023-11-29T20:29:06.337Z,6.43
2023-11-29T20:31:33.027Z,4.43
2023-11-29T20:34:01.528Z,4.25
2023-11-29T20:36:28.293Z,3.00
2023-11-29T20:38:55.372Z,3.85
2023-11-29T20:41:22.535Z,3.08
2023-11-29T20:43:49.174Z,3.22
2023-11-29T20:46:15.821Z,2.55
2023-11-29T20:48:42.483Z,2.35
2023-11-29T20:51:09.244Z,3.10
2023-11-29T20:53:35.966Z,2.88
2023-11-29T20:56:02.728Z,4.45
2023-11-29T20:58:33.219Z,2.80
2023-11-29T21:00:59.908Z,3.25
2023-11-29T21:03:26.754Z,3.72
2023-11-29T21:05:53.580Z,2.50
2023-11-29T21:08:20.267Z,6.75
2023-11-29T21:10:48.248Z,10.30
2023-11-29T21:13:17.919Z,17.63
2023-11-29T21:15:44.648Z,21.58
2023-11-29T21:18:11.588Z,13.80
2023-11-29T21:20:40.268Z,12.68
2023-11-29T21:23:07.806Z,8.20
2023-11-29T21:25:35.224Z,5.10
2023-11-29T21:28:02.058Z,5.22
2023-11-29T21:30:28.929Z,4.90
2023-11-29T21:32:55.596Z,3.25
2023-11-29T21:35:22.200Z,2.67
2023-11-29T21:37:50.056Z,3.28
2023-11-29T21:40:16.915Z,2.72
2023-11-29T21:42:43.634Z,2.70
2023-11-29T21:45:10.847Z,2.53
2023-11-29T21:47:38.129Z,3.85
2023-11-29T21:50:05.374Z,2.78
2023-11-29T21:52:32.007Z,3.47
2023-11-29T21:54:58.658Z,3.20
2023-11-29T21:57:25.261Z,3.55
2023-11-29T21:59:51.916Z,3.28
2023-11-29T22:02:18.724Z,2.92
2023-11-29T22:04:45.357Z,2.85
2023-11-29T22:07:12.024Z,2.88
2023-11-29T22:09:40.221Z,3.00
2023-11-29T22:12:07.016Z,2.63
2023-11-29T22:14:33.729Z,2.75
2023-11-29T22:17:00.675Z,21.02
2023-11-29T22:19:30.276Z,6.60
2023-11-29T22:21:59.241Z,5.65
2023-11-29T22:24:25.996Z,3.85
2023-11-29T22:26:57.409Z,5.25
2023-11-29T22:29:26.635Z,2.60
2023-11-29T22:31:54.400Z,3.05
2023-11-29T22:34:22.110Z,2.90
2023-11-29T22:36:51.587Z,2.88
2023-11-29T22:39:18.655Z,3.05
2023-11-29T22:41:45.341Z,2.95
2023-11-29T22:44:12.578Z,2.67
2023-11-29T22:46:40.844Z,2.33
2023-11-29T22:49:08.443Z,2.95
2023-11-29T22:51:35.474Z,3.10
2023-11-29T22:54:05.685Z,3.00
2023-11-29T22:56:39.792Z,3.65
2023-11-29T22:59:06.681Z,3.33
2023-11-29T23:01:34.091Z,3.20
2023-11-29T23:04:03.106Z,3.28
2023-11-29T23:06:30.374Z,3.35
2023-11-29T23:08:57.326Z,2.65
2023-11-29T23:11:24.147Z,3.10
2023-11-29T23:13:52.476Z,3.13
2023-11-29T23:16:19.765Z,3.20
2023-11-29T23:18:46.606Z,3.00
2023-11-29T23:21:13.346Z,2.42
2023-11-29T23:23:40.468Z,3.22
2023-11-29T23:26:07.422Z,2.72
2023-11-29T23:28:34.209Z,3.00
2023-11-29T23:31:01.052Z,2.53
2023-11-29T23:33:27.946Z,2.90
2023-11-29T23:35:54.778Z,2.33
2023-11-29T23:38:21.447Z,2.75
2023-11-29T23:40:48.069Z,3.13
2023-11-29T23:43:14.752Z,2.45
2023-11-29T23:45:41.369Z,2.30
2023-11-29T23:48:08.267Z,2.50
2023-11-29T23:50:35.009Z,2.10
2023-11-29T23:53:01.890Z,2.30
2023-11-29T23:55:28.513Z,3.10
2023-11-29T23:57:55.130Z,2.45
